sensor_id;sensor_type;location;lat;lon;timestamp;P1;durP1;ratioP1;P2;durP2;ratioP2
40971;SDS011;26701;47.408;19.174;2022-09-13T00:00:32;5.80;;;3.80;;
40971;SDS011;26701;47.408;19.174;2022-09-13T00:02:58;6.60;;;4.00;;
40971;SDS011;26701;47.408;19.174;2022-09-13T00:05:25;7.25;;;4.78;;
40971;SDS011;26701;47.408;19.174;2022-09-13T00:07:51;5.78;;;3.95;;
40971;SDS011;26701;47.408;19.174;2022-09-13T00:10:17;6.57;;;4.13;;
40971;SDS011;26701;47.408;19.174;2022-09-13T00:12:43;8.38;;;4.20;;
40971;SDS011;26701;47.408;19.174;2022-09-13T00:15:10;7.80;;;4.18;;
40971;SDS011;26701;47.408;19.174;2022-09-13T00:17:36;6.70;;;4.25;;
40971;SDS011;26701;47.408;19.174;2022-09-13T00:20:02;6.57;;;3.75;;
40971;SDS011;26701;47.408;19.174;2022-09-13T00:22:28;11.45;;;4.03;;
40971;SDS011;26701;47.408;19.174;2022-09-13T00:24:54;6.82;;;4.45;;
40971;SDS011;26701;47.408;19.174;2022-09-13T00:27:21;8.82;;;4.25;;
40971;SDS011;26701;47.408;19.174;2022-09-13T00:29:46;11.00;;;4.40;;
40971;SDS011;26701;47.408;19.174;2022-09-13T00:32:13;6.97;;;4.60;;
40971;SDS011;26701;47.408;19.174;2022-09-13T00:34:38;6.43;;;4.10;;
40971;SDS011;26701;47.408;19.174;2022-09-13T00:37:05;6.80;;;3.92;;
40971;SDS011;26701;47.408;19.174;2022-09-13T00:39:30;6.70;;;4.10;;
40971;SDS011;26701;47.408;19.174;2022-09-13T00:41:57;7.57;;;5.10;;
40971;SDS011;26701;47.408;19.174;2022-09-13T00:47:07;9.38;;;4.63;;
40971;SDS011;26701;47.408;19.174;2022-09-13T00:49:37;6.70;;;4.47;;
40971;SDS011;26701;47.408;19.174;2022-09-13T00:52:07;9.70;;;5.07;;
40971;SDS011;26701;47.408;19.174;2022-09-13T00:54:40;8.20;;;4.70;;
40971;SDS011;26701;47.408;19.174;2022-09-13T00:57:09;9.52;;;4.85;;
40971;SDS011;26701;47.408;19.174;2022-09-13T00:59:39;11.75;;;5.00;;
40971;SDS011;26701;47.408;19.174;2022-09-13T01:02:09;8.40;;;4.53;;
40971;SDS011;26701;47.408;19.174;2022-09-13T01:04:36;9.88;;;4.40;;
40971;SDS011;26701;47.408;19.174;2022-09-13T01:07:05;6.63;;;4.00;;
40971;SDS011;26701;47.408;19.174;2022-09-13T01:09:37;15.65;;;4.97;;
40971;SDS011;26701;47.408;19.174;2022-09-13T01:12:05;9.80;;;4.70;;
40971;SDS011;26701;47.408;19.174;2022-09-13T01:14:39;8.18;;;4.90;;
40971;SDS011;26701;47.408;19.174;2022-09-13T01:17:07;6.30;;;4.35;;
40971;SDS011;26701;47.408;19.174;2022-09-13T01:19:34;6.50;;;4.38;;
40971;SDS011;26701;47.408;19.174;2022-09-13T01:22:05;8.40;;;4.55;;
40971;SDS011;26701;47.408;19.174;2022-09-13T01:30:05;9.02;;;4.78;;
40971;SDS011;26701;47.408;19.174;2022-09-13T01:53:06;8.00;;;4.80;;
40971;SDS011;26701;47.408;19.174;2022-09-13T01:55:45;9.48;;;5.50;;
40971;SDS011;26701;47.408;19.174;2022-09-13T02:01:15;7.65;;;5.03;;
40971;SDS011;26701;47.408;19.174;2022-09-13T02:03:52;7.78;;;5.22;;
40971;SDS011;26701;47.408;19.174;2022-09-13T02:06:22;8.95;;;5.10;;
40971;SDS011;26701;47.408;19.174;2022-09-13T02:08:53;8.02;;;5.07;;
40971;SDS011;26701;47.408;19.174;2022-09-13T02:11:22;7.25;;;4.55;;
40971;SDS011;26701;47.408;19.174;2022-09-13T02:13:50;7.50;;;4.93;;
40971;SDS011;26701;47.408;19.174;2022-09-13T02:16:23;7.53;;;5.00;;
40971;SDS011;26701;47.408;19.174;2022-09-13T02:18:52;7.45;;;4.90;;
40971;SDS011;26701;47.408;19.174;2022-09-13T02:21:21;8.18;;;4.75;;
40971;SDS011;26701;47.408;19.174;2022-09-13T02:23:56;8.05;;;4.90;;
40971;SDS011;26701;47.408;19.174;2022-09-13T02:26:27;9.70;;;5.25;;
40971;SDS011;26701;47.408;19.174;2022-09-13T02:28:56;8.10;;;4.93;;
40971;SDS011;26701;47.408;19.174;2022-09-13T02:34:40;11.05;;;4.72;;
40971;SDS011;26701;47.408;19.174;2022-09-13T02:37:12;11.25;;;4.60;;
40971;SDS011;26701;47.408;19.174;2022-09-13T02:39:43;8.02;;;5.35;;
40971;SDS011;26701;47.408;19.174;2022-09-13T02:42:18;8.10;;;4.75;;
40971;SDS011;26701;47.408;19.174;2022-09-13T02:44:49;7.97;;;5.00;;
40971;SDS011;26701;47.408;19.174;2022-09-13T02:52:31;7.75;;;5.07;;
40971;SDS011;26701;47.408;19.174;2022-09-13T03:00:03;7.15;;;4.88;;
40971;SDS011;26701;47.408;19.174;2022-09-13T03:02:32;8.55;;;5.30;;
40971;SDS011;26701;47.408;19.174;2022-09-13T03:04:59;8.80;;;5.47;;
40971;SDS011;26701;47.408;19.174;2022-09-13T03:07:26;10.82;;;5.88;;
40971;SDS011;26701;47.408;19.174;2022-09-13T03:10:04;11.23;;;5.38;;
40971;SDS011;26701;47.408;19.174;2022-09-13T03:18:04;8.63;;;6.07;;
40971;SDS011;26701;47.408;19.174;2022-09-13T03:23:07;8.27;;;5.68;;
40971;SDS011;26701;47.408;19.174;2022-09-13T03:28:04;10.27;;;5.35;;
40971;SDS011;26701;47.408;19.174;2022-09-13T03:30:55;8.50;;;5.75;;
40971;SDS011;26701;47.408;19.174;2022-09-13T03:39:11;11.52;;;7.28;;
40971;SDS011;26701;47.408;19.174;2022-09-13T03:41:42;13.30;;;6.82;;
40971;SDS011;26701;47.408;19.174;2022-09-13T03:44:15;10.18;;;6.22;;
40971;SDS011;26701;47.408;19.174;2022-09-13T03:46:45;11.05;;;5.88;;
40971;SDS011;26701;47.408;19.174;2022-09-13T03:49:14;9.70;;;6.35;;
40971;SDS011;26701;47.408;19.174;2022-09-13T03:51:48;9.45;;;6.03;;
40971;SDS011;26701;47.408;19.174;2022-09-13T03:54:16;10.63;;;6.45;;
40971;SDS011;26701;47.408;19.174;2022-09-13T03:57:04;10.10;;;5.70;;
40971;SDS011;26701;47.408;19.174;2022-09-13T03:59:30;10.45;;;6.63;;
40971;SDS011;26701;47.408;19.174;2022-09-13T04:01:56;9.77;;;6.00;;
40971;SDS011;26701;47.408;19.174;2022-09-13T04:04:22;11.43;;;6.50;;
40971;SDS011;26701;47.408;19.174;2022-09-13T04:06:48;10.98;;;6.43;;
40971;SDS011;26701;47.408;19.174;2022-09-13T04:09:14;10.55;;;6.20;;
40971;SDS011;26701;47.408;19.174;2022-09-13T04:11:40;16.35;;;7.60;;
40971;SDS011;26701;47.408;19.174;2022-09-13T04:14:06;10.50;;;6.20;;
40971;SDS011;26701;47.408;19.174;2022-09-13T04:16:32;11.00;;;6.35;;
40971;SDS011;26701;47.408;19.174;2022-09-13T04:18:58;13.98;;;6.53;;
40971;SDS011;26701;47.408;19.174;2022-09-13T04:21:24;22.65;;;9.50;;
40971;SDS011;26701;47.408;19.174;2022-09-13T04:23:50;12.20;;;6.50;;
40971;SDS011;26701;47.408;19.174;2022-09-13T04:26:16;10.25;;;6.45;;
40971;SDS011;26701;47.408;19.174;2022-09-13T04:28:42;12.55;;;6.55;;
40971;SDS011;26701;47.408;19.174;2022-09-13T04:31:08;14.82;;;7.15;;
40971;SDS011;26701;47.408;19.174;2022-09-13T04:33:34;13.30;;;7.10;;
40971;SDS011;26701;47.408;19.174;2022-09-13T04:36:01;14.05;;;6.68;;
40971;SDS011;26701;47.408;19.174;2022-09-13T04:38:27;14.77;;;6.45;;
40971;SDS011;26701;47.408;19.174;2022-09-13T04:40:55;17.33;;;7.95;;
40971;SDS011;26701;47.408;19.174;2022-09-13T04:43:21;15.85;;;7.40;;
40971;SDS011;26701;47.408;19.174;2022-09-13T04:45:48;14.57;;;7.35;;
40971;SDS011;26701;47.408;19.174;2022-09-13T04:48:14;20.58;;;7.93;;
40971;SDS011;26701;47.408;19.174;2022-09-13T04:50:41;16.52;;;8.45;;
40971;SDS011;26701;47.408;19.174;2022-09-13T04:53:07;16.25;;;8.43;;
40971;SDS011;26701;47.408;19.174;2022-09-13T04:55:33;15.32;;;7.78;;
40971;SDS011;26701;47.408;19.174;2022-09-13T04:58:01;17.05;;;7.57;;
40971;SDS011;26701;47.408;19.174;2022-09-13T05:00:28;11.18;;;6.32;;
40971;SDS011;26701;47.408;19.174;2022-09-13T05:02:55;13.05;;;7.57;;
40971;SDS011;26701;47.408;19.174;2022-09-13T05:05:22;17.27;;;7.80;;
40971;SDS011;26701;47.408;19.174;2022-09-13T05:07:50;13.70;;;7.00;;
40971;SDS011;26701;47.408;19.174;2022-09-13T05:10:16;10.48;;;6.35;;
40971;SDS011;26701;47.408;19.174;2022-09-13T05:12:42;12.10;;;7.15;;
40971;SDS011;26701;47.408;19.174;2022-09-13T05:15:09;14.13;;;7.68;;
40971;SDS011;26701;47.408;19.174;2022-09-13T05:17:36;18.80;;;8.15;;
40971;SDS011;26701;47.408;19.174;2022-09-13T05:20:02;18.45;;;8.57;;
40971;SDS011;26701;47.408;19.174;2022-09-13T05:22:29;12.93;;;6.85;;
40971;SDS011;26701;47.408;19.174;2022-09-13T05:24:55;31.30;;;9.00;;
40971;SDS011;26701;47.408;19.174;2022-09-13T05:27:21;13.98;;;6.93;;
40971;SDS011;26701;47.408;19.174;2022-09-13T05:29:48;19.25;;;7.85;;
40971;SDS011;26701;47.408;19.174;2022-09-13T05:32:13;15.27;;;8.30;;
40971;SDS011;26701;47.408;19.174;2022-09-13T05:34:39;17.75;;;8.25;;
40971;SDS011;26701;47.408;19.174;2022-09-13T05:37:05;19.60;;;9.07;;
40971;SDS011;26701;47.408;19.174;2022-09-13T05:39:31;15.75;;;7.78;;
40971;SDS011;26701;47.408;19.174;2022-09-13T05:41:57;15.32;;;8.13;;
40971;SDS011;26701;47.408;19.174;2022-09-13T05:44:23;18.67;;;9.48;;
40971;SDS011;26701;47.408;19.174;2022-09-13T05:46:50;14.60;;;8.07;;
40971;SDS011;26701;47.408;19.174;2022-09-13T05:49:16;13.95;;;6.82;;
40971;SDS011;26701;47.408;19.174;2022-09-13T05:51:41;18.92;;;7.80;;
40971;SDS011;26701;47.408;19.174;2022-09-13T05:54:09;17.15;;;7.80;;
40971;SDS011;26701;47.408;19.174;2022-09-13T05:56:36;10.52;;;6.18;;
40971;SDS011;26701;47.408;19.174;2022-09-13T05:59:02;11.98;;;6.45;;
40971;SDS011;26701;47.408;19.174;2022-09-13T06:01:29;9.85;;;6.35;;
40971;SDS011;26701;47.408;19.174;2022-09-13T06:03:56;11.38;;;6.82;;
40971;SDS011;26701;47.408;19.174;2022-09-13T06:06:23;12.75;;;6.15;;
40971;SDS011;26701;47.408;19.174;2022-09-13T06:08:52;14.15;;;6.63;;
40971;SDS011;26701;47.408;19.174;2022-09-13T06:11:19;11.55;;;5.75;;
40971;SDS011;26701;47.408;19.174;2022-09-13T06:13:45;10.80;;;6.03;;
40971;SDS011;26701;47.408;19.174;2022-09-13T06:16:12;10.82;;;5.85;;
40971;SDS011;26701;47.408;19.174;2022-09-13T06:18:39;12.32;;;6.43;;
40971;SDS011;26701;47.408;19.174;2022-09-13T06:21:06;9.95;;;5.85;;
40971;SDS011;26701;47.408;19.174;2022-09-13T06:23:32;12.80;;;7.53;;
40971;SDS011;26701;47.408;19.174;2022-09-13T06:26:06;14.18;;;6.60;;
40971;SDS011;26701;47.408;19.174;2022-09-13T06:28:34;11.38;;;6.13;;
40971;SDS011;26701;47.408;19.174;2022-09-13T06:31:07;14.48;;;5.88;;
40971;SDS011;26701;47.408;19.174;2022-09-13T06:33:35;14.38;;;5.97;;
40971;SDS011;26701;47.408;19.174;2022-09-13T06:36:05;12.85;;;5.72;;
40971;SDS011;26701;47.408;19.174;2022-09-13T06:38:32;12.55;;;5.93;;
40971;SDS011;26701;47.408;19.174;2022-09-13T06:40:59;12.80;;;6.47;;
40971;SDS011;26701;47.408;19.174;2022-09-13T06:43:25;10.68;;;5.28;;
40971;SDS011;26701;47.408;19.174;2022-09-13T06:45:51;8.57;;;4.88;;
40971;SDS011;26701;47.408;19.174;2022-09-13T06:48:18;16.65;;;5.78;;
40971;SDS011;26701;47.408;19.174;2022-09-13T06:50:44;12.85;;;6.15;;
40971;SDS011;26701;47.408;19.174;2022-09-13T06:53:10;8.98;;;4.90;;
40971;SDS011;26701;47.408;19.174;2022-09-13T06:55:36;10.52;;;5.03;;
40971;SDS011;26701;47.408;19.174;2022-09-13T06:58:03;10.48;;;4.72;;
40971;SDS011;26701;47.408;19.174;2022-09-13T07:00:29;12.95;;;5.90;;
40971;SDS011;26701;47.408;19.174;2022-09-13T07:02:55;9.48;;;4.25;;
40971;SDS011;26701;47.408;19.174;2022-09-13T07:05:21;11.77;;;5.18;;
40971;SDS011;26701;47.408;19.174;2022-09-13T07:07:47;10.63;;;4.63;;
40971;SDS011;26701;47.408;19.174;2022-09-13T07:10:13;9.90;;;4.90;;
40971;SDS011;26701;47.408;19.174;2022-09-13T07:12:40;14.63;;;5.50;;
40971;SDS011;26701;47.408;19.174;2022-09-13T07:15:06;10.10;;;4.82;;
40971;SDS011;26701;47.408;19.174;2022-09-13T07:17:33;11.18;;;5.13;;
40971;SDS011;26701;47.408;19.174;2022-09-13T07:19:59;9.43;;;5.13;;
40971;SDS011;26701;47.408;19.174;2022-09-13T07:22:25;11.73;;;5.28;;
40971;SDS011;26701;47.408;19.174;2022-09-13T07:24:52;10.30;;;4.63;;
40971;SDS011;26701;47.408;19.174;2022-09-13T07:27:18;10.50;;;4.95;;
40971;SDS011;26701;47.408;19.174;2022-09-13T07:29:44;12.00;;;5.90;;
40971;SDS011;26701;47.408;19.174;2022-09-13T07:32:10;15.52;;;5.55;;
40971;SDS011;26701;47.408;19.174;2022-09-13T07:34:37;10.13;;;4.05;;
40971;SDS011;26701;47.408;19.174;2022-09-13T07:37:03;8.45;;;4.60;;
40971;SDS011;26701;47.408;19.174;2022-09-13T07:39:28;7.70;;;4.20;;
40971;SDS011;26701;47.408;19.174;2022-09-13T07:41:55;10.15;;;4.78;;
40971;SDS011;26701;47.408;19.174;2022-09-13T07:44:21;8.77;;;3.95;;
40971;SDS011;26701;47.408;19.174;2022-09-13T07:46:47;10.32;;;4.65;;
40971;SDS011;26701;47.408;19.174;2022-09-13T07:49:15;8.32;;;3.58;;
40971;SDS011;26701;47.408;19.174;2022-09-13T07:51:43;6.80;;;3.55;;
40971;SDS011;26701;47.408;19.174;2022-09-13T07:54:10;7.95;;;3.92;;
40971;SDS011;26701;47.408;19.174;2022-09-13T07:56:37;10.50;;;3.50;;
40971;SDS011;26701;47.408;19.174;2022-09-13T07:59:06;11.23;;;3.90;;
40971;SDS011;26701;47.408;19.174;2022-09-13T08:01:35;9.35;;;3.88;;
40971;SDS011;26701;47.408;19.174;2022-09-13T08:04:03;9.75;;;4.18;;
40971;SDS011;26701;47.408;19.174;2022-09-13T08:06:30;7.13;;;3.47;;
40971;SDS011;26701;47.408;19.174;2022-09-13T08:08:56;6.28;;;3.67;;
40971;SDS011;26701;47.408;19.174;2022-09-13T08:11:24;6.93;;;3.42;;
40971;SDS011;26701;47.408;19.174;2022-09-13T08:13:51;7.25;;;2.85;;
40971;SDS011;26701;47.408;19.174;2022-09-13T08:16:18;6.88;;;3.47;;
40971;SDS011;26701;47.408;19.174;2022-09-13T08:18:49;8.07;;;4.30;;
40971;SDS011;26701;47.408;19.174;2022-09-13T08:21:16;11.35;;;3.90;;
40971;SDS011;26701;47.408;19.174;2022-09-13T08:23:43;5.18;;;2.85;;
40971;SDS011;26701;47.408;19.174;2022-09-13T08:26:09;8.45;;;3.50;;
40971;SDS011;26701;47.408;19.174;2022-09-13T08:28:36;9.30;;;4.03;;
40971;SDS011;26701;47.408;19.174;2022-09-13T08:31:11;9.30;;;3.80;;
40971;SDS011;26701;47.408;19.174;2022-09-13T08:33:41;13.73;;;5.70;;
40971;SDS011;26701;47.408;19.174;2022-09-13T08:36:08;10.45;;;5.10;;
40971;SDS011;26701;47.408;19.174;2022-09-13T08:38:34;8.10;;;3.75;;
40971;SDS011;26701;47.408;19.174;2022-09-13T08:43:53;8.57;;;4.13;;
40971;SDS011;26701;47.408;19.174;2022-09-13T08:49:14;9.23;;;4.60;;
40971;SDS011;26701;47.408;19.174;2022-09-13T08:51:53;7.78;;;3.67;;
40971;SDS011;26701;47.408;19.174;2022-09-13T08:54:21;15.77;;;5.80;;
40971;SDS011;26701;47.408;19.174;2022-09-13T09:05:28;9.27;;;3.03;;
40971;SDS011;26701;47.408;19.174;2022-09-13T09:07:58;4.35;;;2.67;;
40971;SDS011;26701;47.408;19.174;2022-09-13T09:10:30;4.78;;;3.03;;
40971;SDS011;26701;47.408;19.174;2022-09-13T09:15:54;5.63;;;3.28;;
40971;SDS011;26701;47.408;19.174;2022-09-13T09:18:30;6.60;;;3.15;;
40971;SDS011;26701;47.408;19.174;2022-09-13T09:21:00;3.78;;;2.80;;
40971;SDS011;26701;47.408;19.174;2022-09-13T09:24:04;8.38;;;2.50;;
40971;SDS011;26701;47.408;19.174;2022-09-13T09:26:26;9.60;;;3.25;;
40971;SDS011;26701;47.408;19.174;2022-09-13T09:37:02;10.80;;;4.40;;
40971;SDS011;26701;47.408;19.174;2022-09-13T09:39:45;6.57;;;2.63;;
40971;SDS011;26701;47.408;19.174;2022-09-13T09:42:15;7.10;;;3.10;;
40971;SDS011;26701;47.408;19.174;2022-09-13T09:44:48;4.40;;;2.58;;
40971;SDS011;26701;47.408;19.174;2022-09-13T09:47:18;6.57;;;3.35;;
40971;SDS011;26701;47.408;19.174;2022-09-13T09:49:47;6.53;;;4.13;;
40971;SDS011;26701;47.408;19.174;2022-09-13T09:52:49;6.80;;;2.95;;
40971;SDS011;26701;47.408;19.174;2022-09-13T09:55:28;4.32;;;2.75;;
40971;SDS011;26701;47.408;19.174;2022-09-13T09:58:04;5.65;;;3.30;;
40971;SDS011;26701;47.408;19.174;2022-09-13T10:00:31;5.95;;;2.85;;
40971;SDS011;26701;47.408;19.174;2022-09-13T10:03:16;5.45;;;2.88;;
40971;SDS011;26701;47.408;19.174;2022-09-13T10:05:43;6.68;;;3.50;;
40971;SDS011;26701;47.408;19.174;2022-09-13T10:11:06;9.65;;;3.20;;
40971;SDS011;26701;47.408;19.174;2022-09-13T10:13:33;5.47;;;3.17;;
40971;SDS011;26701;47.408;19.174;2022-09-13T10:16:06;5.53;;;2.92;;
40971;SDS011;26701;47.408;19.174;2022-09-13T10:18:51;7.22;;;2.95;;
40971;SDS011;26701;47.408;19.174;2022-09-13T10:23:44;5.88;;;3.15;;
40971;SDS011;26701;47.408;19.174;2022-09-13T10:26:15;8.18;;;3.47;;
40971;SDS011;26701;47.408;19.174;2022-09-13T10:28:59;7.95;;;3.20;;
40971;SDS011;26701;47.408;19.174;2022-09-13T10:31:29;5.28;;;2.47;;
40971;SDS011;26701;47.408;19.174;2022-09-13T10:33:59;8.60;;;2.95;;
40971;SDS011;26701;47.408;19.174;2022-09-13T10:36:33;8.10;;;2.97;;
40971;SDS011;26701;47.408;19.174;2022-09-13T10:39:01;7.57;;;3.75;;
40971;SDS011;26701;47.408;19.174;2022-09-13T10:41:33;5.20;;;2.60;;
40971;SDS011;26701;47.408;19.174;2022-09-13T10:44:03;6.28;;;2.55;;
40971;SDS011;26701;47.408;19.174;2022-09-13T10:46:35;8.15;;;3.22;;
40971;SDS011;26701;47.408;19.174;2022-09-13T10:49:04;6.15;;;3.08;;
40971;SDS011;26701;47.408;19.174;2022-09-13T10:51:32;5.28;;;2.55;;
40971;SDS011;26701;47.408;19.174;2022-09-13T10:54:08;7.10;;;3.13;;
40971;SDS011;26701;47.408;19.174;2022-09-13T10:56:35;4.20;;;2.70;;
40971;SDS011;26701;47.408;19.174;2022-09-13T11:10:33;5.28;;;2.50;;
40971;SDS011;26701;47.408;19.174;2022-09-13T11:40:46;8.93;;;3.85;;
40971;SDS011;26701;47.408;19.174;2022-09-13T11:51:08;7.90;;;3.97;;
40971;SDS011;26701;47.408;19.174;2022-09-13T11:53:57;5.97;;;3.35;;
40971;SDS011;26701;47.408;19.174;2022-09-13T11:56:31;8.32;;;4.07;;
40971;SDS011;26701;47.408;19.174;2022-09-13T12:02:00;7.70;;;3.80;;
40971;SDS011;26701;47.408;19.174;2022-09-13T12:04:55;13.48;;;4.45;;
40971;SDS011;26701;47.408;19.174;2022-09-13T12:10:01;8.65;;;4.05;;
40971;SDS011;26701;47.408;19.174;2022-09-13T12:12:39;8.05;;;4.15;;
40971;SDS011;26701;47.408;19.174;2022-09-13T12:15:12;8.32;;;3.97;;
40971;SDS011;26701;47.408;19.174;2022-09-13T12:17:44;7.60;;;3.63;;
40971;SDS011;26701;47.408;19.174;2022-09-13T12:20:43;9.35;;;3.97;;
40971;SDS011;26701;47.408;19.174;2022-09-13T12:23:19;11.77;;;5.20;;
40971;SDS011;26701;47.408;19.174;2022-09-13T12:26:01;13.20;;;5.15;;
40971;SDS011;26701;47.408;19.174;2022-09-13T12:28:38;6.03;;;3.80;;
40971;SDS011;26701;47.408;19.174;2022-09-13T12:31:10;14.07;;;4.55;;
40971;SDS011;26701;47.408;19.174;2022-09-13T12:33:40;8.13;;;3.50;;
40971;SDS011;26701;47.408;19.174;2022-09-13T12:44:46;6.38;;;3.55;;
40971;SDS011;26701;47.408;19.174;2022-09-13T13:01:40;7.95;;;3.53;;
40971;SDS011;26701;47.408;19.174;2022-09-13T13:04:16;13.85;;;5.18;;
40971;SDS011;26701;47.408;19.174;2022-09-13T13:12:07;9.32;;;4.13;;
40971;SDS011;26701;47.408;19.174;2022-09-13T13:36:42;9.82;;;4.10;;
40971;SDS011;26701;47.408;19.174;2022-09-13T13:41:35;9.00;;;3.47;;
40971;SDS011;26701;47.408;19.174;2022-09-13T13:57:26;9.93;;;3.20;;
40971;SDS011;26701;47.408;19.174;2022-09-13T13:59:53;6.80;;;3.53;;
40971;SDS011;26701;47.408;19.174;2022-09-13T14:02:42;13.40;;;4.25;;
40971;SDS011;26701;47.408;19.174;2022-09-13T14:05:32;8.93;;;3.42;;
40971;SDS011;26701;47.408;19.174;2022-09-13T14:10:56;7.75;;;3.65;;
40971;SDS011;26701;47.408;19.174;2022-09-13T14:21:51;10.30;;;3.97;;
40971;SDS011;26701;47.408;19.174;2022-09-13T14:24:34;10.38;;;4.03;;
40971;SDS011;26701;47.408;19.174;2022-09-13T14:27:01;11.35;;;3.72;;
40971;SDS011;26701;47.408;19.174;2022-09-13T14:29:27;12.32;;;3.97;;
40971;SDS011;26701;47.408;19.174;2022-09-13T14:31:56;6.60;;;2.97;;
40971;SDS011;26701;47.408;19.174;2022-09-13T14:34:32;9.68;;;3.70;;
40971;SDS011;26701;47.408;19.174;2022-09-13T14:37:03;6.10;;;3.17;;
40971;SDS011;26701;47.408;19.174;2022-09-13T14:39:31;8.77;;;3.60;;
40971;SDS011;26701;47.408;19.174;2022-09-13T14:41:58;8.48;;;3.63;;
40971;SDS011;26701;47.408;19.174;2022-09-13T14:44:36;11.65;;;4.30;;
40971;SDS011;26701;47.408;19.174;2022-09-13T14:47:04;10.63;;;3.83;;
40971;SDS011;26701;47.408;19.174;2022-09-13T14:49:38;7.85;;;4.15;;
40971;SDS011;26701;47.408;19.174;2022-09-13T14:52:09;7.70;;;3.45;;
40971;SDS011;26701;47.408;19.174;2022-09-13T14:54:48;8.85;;;4.00;;
40971;SDS011;26701;47.408;19.174;2022-09-13T14:57:24;9.30;;;3.60;;
40971;SDS011;26701;47.408;19.174;2022-09-13T14:59:54;8.63;;;3.40;;
40971;SDS011;26701;47.408;19.174;2022-09-13T15:02:30;7.15;;;3.40;;
40971;SDS011;26701;47.408;19.174;2022-09-13T15:05:02;6.03;;;3.10;;
40971;SDS011;26701;47.408;19.174;2022-09-13T15:07:34;8.07;;;3.95;;
40971;SDS011;26701;47.408;19.174;2022-09-13T15:10:21;11.38;;;3.95;;
40971;SDS011;26701;47.408;19.174;2022-09-13T15:15:38;8.65;;;3.90;;
40971;SDS011;26701;47.408;19.174;2022-09-13T15:23:41;9.48;;;3.80;;
40971;SDS011;26701;47.408;19.174;2022-09-13T15:26:20;7.50;;;3.53;;
40971;SDS011;26701;47.408;19.174;2022-09-13T15:28:49;8.60;;;4.28;;
40971;SDS011;26701;47.408;19.174;2022-09-13T15:31:29;10.07;;;4.38;;
40971;SDS011;26701;47.408;19.174;2022-09-13T15:37:00;9.15;;;3.90;;
40971;SDS011;26701;47.408;19.174;2022-09-13T15:39:40;10.82;;;3.78;;
40971;SDS011;26701;47.408;19.174;2022-09-13T15:42:15;9.38;;;3.47;;
40971;SDS011;26701;47.408;19.174;2022-09-13T15:44:41;8.68;;;3.65;;
40971;SDS011;26701;47.408;19.174;2022-09-13T15:47:09;15.38;;;3.90;;
40971;SDS011;26701;47.408;19.174;2022-09-13T15:49:39;6.70;;;3.30;;
40971;SDS011;26701;47.408;19.174;2022-09-13T15:52:06;8.63;;;3.83;;
40971;SDS011;26701;47.408;19.174;2022-09-13T15:54:39;7.15;;;3.50;;
40971;SDS011;26701;47.408;19.174;2022-09-13T15:57:12;9.50;;;4.10;;
40971;SDS011;26701;47.408;19.174;2022-09-13T15:59:42;11.10;;;4.13;;
40971;SDS011;26701;47.408;19.174;2022-09-13T16:02:15;9.77;;;3.63;;
40971;SDS011;26701;47.408;19.174;2022-09-13T16:04:43;8.25;;;3.15;;
40971;SDS011;26701;47.408;19.174;2022-09-13T16:07:11;11.85;;;3.47;;
40971;SDS011;26701;47.408;19.174;2022-09-13T16:09:38;8.77;;;3.83;;
40971;SDS011;26701;47.408;19.174;2022-09-13T16:12:04;8.52;;;3.55;;
40971;SDS011;26701;47.408;19.174;2022-09-13T16:14:30;11.82;;;4.38;;
40971;SDS011;26701;47.408;19.174;2022-09-13T16:17:04;7.05;;;3.67;;
40971;SDS011;26701;47.408;19.174;2022-09-13T16:19:34;6.60;;;3.08;;
40971;SDS011;26701;47.408;19.174;2022-09-13T16:22:00;9.40;;;2.97;;
40971;SDS011;26701;47.408;19.174;2022-09-13T16:24:26;5.95;;;3.20;;
40971;SDS011;26701;47.408;19.174;2022-09-13T16:26:54;10.90;;;3.55;;
40971;SDS011;26701;47.408;19.174;2022-09-13T16:29:20;7.35;;;3.90;;
40971;SDS011;26701;47.408;19.174;2022-09-13T16:31:46;10.02;;;4.13;;
40971;SDS011;26701;47.408;19.174;2022-09-13T16:34:13;9.27;;;4.20;;
40971;SDS011;26701;47.408;19.174;2022-09-13T16:36:39;9.30;;;2.90;;
40971;SDS011;26701;47.408;19.174;2022-09-13T16:39:05;14.13;;;5.63;;
40971;SDS011;26701;47.408;19.174;2022-09-13T16:41:31;8.32;;;3.80;;
40971;SDS011;26701;47.408;19.174;2022-09-13T16:43:57;9.38;;;3.40;;
40971;SDS011;26701;47.408;19.174;2022-09-13T16:46:23;7.50;;;3.75;;
40971;SDS011;26701;47.408;19.174;2022-09-13T16:48:53;13.55;;;4.85;;
40971;SDS011;26701;47.408;19.174;2022-09-13T16:51:20;9.98;;;4.18;;
40971;SDS011;26701;47.408;19.174;2022-09-13T16:53:48;11.50;;;4.05;;
40971;SDS011;26701;47.408;19.174;2022-09-13T16:56:15;13.15;;;4.82;;
40971;SDS011;26701;47.408;19.174;2022-09-13T16:58:43;11.57;;;3.75;;
40971;SDS011;26701;47.408;19.174;2022-09-13T17:01:11;15.93;;;4.90;;
40971;SDS011;26701;47.408;19.174;2022-09-13T17:03:38;9.02;;;4.05;;
40971;SDS011;26701;47.408;19.174;2022-09-13T17:06:05;8.95;;;3.92;;
40971;SDS011;26701;47.408;19.174;2022-09-13T17:08:32;10.68;;;3.88;;
40971;SDS011;26701;47.408;19.174;2022-09-13T17:10:59;9.30;;;4.10;;
40971;SDS011;26701;47.408;19.174;2022-09-13T17:13:25;12.70;;;4.13;;
40971;SDS011;26701;47.408;19.174;2022-09-13T17:15:51;8.80;;;3.63;;
40971;SDS011;26701;47.408;19.174;2022-09-13T17:18:17;10.60;;;3.58;;
40971;SDS011;26701;47.408;19.174;2022-09-13T17:20:46;7.63;;;3.75;;
40971;SDS011;26701;47.408;19.174;2022-09-13T17:23:14;14.52;;;4.35;;
40971;SDS011;26701;47.408;19.174;2022-09-13T17:25:41;17.55;;;4.78;;
40971;SDS011;26701;47.408;19.174;2022-09-13T17:28:15;10.52;;;4.25;;
40971;SDS011;26701;47.408;19.174;2022-09-13T17:30:41;12.82;;;4.40;;
40971;SDS011;26701;47.408;19.174;2022-09-13T17:33:07;12.23;;;5.55;;
40971;SDS011;26701;47.408;19.174;2022-09-13T17:35:34;12.45;;;4.45;;
40971;SDS011;26701;47.408;19.174;2022-09-13T17:38:01;11.38;;;4.75;;
40971;SDS011;26701;47.408;19.174;2022-09-13T17:40:27;11.40;;;4.85;;
40971;SDS011;26701;47.408;19.174;2022-09-13T17:42:54;11.55;;;4.75;;
40971;SDS011;26701;47.408;19.174;2022-09-13T17:45:20;12.65;;;4.45;;
40971;SDS011;26701;47.408;19.174;2022-09-13T17:47:47;11.40;;;4.93;;
40971;SDS011;26701;47.408;19.174;2022-09-13T17:50:13;12.93;;;5.53;;
40971;SDS011;26701;47.408;19.174;2022-09-13T17:52:39;11.05;;;4.72;;
40971;SDS011;26701;47.408;19.174;2022-09-13T17:55:05;12.55;;;5.10;;
40971;SDS011;26701;47.408;19.174;2022-09-13T17:57:32;9.50;;;4.85;;
40971;SDS011;26701;47.408;19.174;2022-09-13T17:59:58;14.90;;;4.72;;
40971;SDS011;26701;47.408;19.174;2022-09-13T18:02:25;14.35;;;5.72;;
40971;SDS011;26701;47.408;19.174;2022-09-13T18:04:52;13.50;;;6.00;;
40971;SDS011;26701;47.408;19.174;2022-09-13T18:07:18;25.75;;;10.00;;
40971;SDS011;26701;47.408;19.174;2022-09-13T18:09:44;11.20;;;5.20;;
40971;SDS011;26701;47.408;19.174;2022-09-13T18:12:11;15.98;;;4.32;;
40971;SDS011;26701;47.408;19.174;2022-09-13T18:14:37;10.65;;;4.75;;
40971;SDS011;26701;47.408;19.174;2022-09-13T18:17:04;13.57;;;4.80;;
40971;SDS011;26701;47.408;19.174;2022-09-13T18:19:37;9.80;;;4.63;;
40971;SDS011;26701;47.408;19.174;2022-09-13T18:22:04;10.57;;;4.90;;
40971;SDS011;26701;47.408;19.174;2022-09-13T18:24:30;13.90;;;5.03;;
40971;SDS011;26701;47.408;19.174;2022-09-13T18:26:58;16.67;;;5.60;;
40971;SDS011;26701;47.408;19.174;2022-09-13T18:29:24;13.90;;;5.82;;
40971;SDS011;26701;47.408;19.174;2022-09-13T18:31:53;12.57;;;5.30;;
40971;SDS011;26701;47.408;19.174;2022-09-13T18:34:19;11.48;;;5.05;;